sensor_id;sensor_type;location;lat;lon;timestamp;P1;durP1;ratioP1;P2;durP2;ratioP2
52974;SDS011;38839;45.186;5.720;2023-03-31T00:01:03;6.63;;;3.15;;
52974;SDS011;38839;45.186;5.720;2023-03-31T00:03:30;11.25;;;4.00;;
52974;SDS011;38839;45.186;5.720;2023-03-31T00:05:58;6.65;;;3.40;;
52974;SDS011;38839;45.186;5.720;2023-03-31T00:08:25;6.72;;;3.38;;
52974;SDS011;38839;45.186;5.720;2023-03-31T00:10:56;9.97;;;3.87;;
52974;SDS011;38839;45.186;5.720;2023-03-31T00:13:24;8.27;;;3.47;;
52974;SDS011;38839;45.186;5.720;2023-03-31T00:15:54;6.10;;;3.40;;
52974;SDS011;38839;45.186;5.720;2023-03-31T00:18:20;15.43;;;3.30;;
52974;SDS011;38839;45.186;5.720;2023-03-31T00:20:46;9.98;;;3.65;;
52974;SDS011;38839;45.186;5.720;2023-03-31T00:23:12;9.52;;;3.45;;
52974;SDS011;38839;45.186;5.720;2023-03-31T00:25:38;7.43;;;3.47;;
52974;SDS011;38839;45.186;5.720;2023-03-31T00:28:07;9.47;;;4.20;;
52974;SDS011;38839;45.186;5.720;2023-03-31T00:30:32;6.50;;;3.20;;
52974;SDS011;38839;45.186;5.720;2023-03-31T00:32:58;8.65;;;3.72;;
52974;SDS011;38839;45.186;5.720;2023-03-31T00:35:24;5.80;;;3.50;;
52974;SDS011;38839;45.186;5.720;2023-03-31T00:37:49;7.57;;;3.80;;
52974;SDS011;38839;45.186;5.720;2023-03-31T00:40:15;9.45;;;3.67;;
52974;SDS011;38839;45.186;5.720;2023-03-31T00:42:41;6.78;;;3.20;;
52974;SDS011;38839;45.186;5.720;2023-03-31T00:48:24;6.05;;;3.33;;
52974;SDS011;38839;45.186;5.720;2023-03-31T00:50:49;7.90;;;3.38;;
52974;SDS011;38839;45.186;5.720;2023-03-31T00:53:18;9.30;;;3.08;;
52974;SDS011;38839;45.186;5.720;2023-03-31T00:55:50;7.32;;;2.85;;
52974;SDS011;38839;45.186;5.720;2023-03-31T00:58:18;10.05;;;2.75;;
52974;SDS011;38839;45.186;5.720;2023-03-31T01:00:48;6.93;;;3.47;;
52974;SDS011;38839;45.186;5.720;2023-03-31T01:03:16;7.65;;;3.78;;
52974;SDS011;38839;45.186;5.720;2023-03-31T01:05:44;4.75;;;3.33;;
52974;SDS011;38839;45.186;5.720;2023-03-31T01:08:14;12.00;;;3.40;;
52974;SDS011;38839;45.186;5.720;2023-03-31T01:10:43;8.13;;;3.10;;
52974;SDS011;38839;45.186;5.720;2023-03-31T01:13:12;7.78;;;3.40;;
52974;SDS011;38839;45.186;5.720;2023-03-31T01:15:40;5.15;;;2.88;;
52974;SDS011;38839;45.186;5.720;2023-03-31T01:18:06;7.50;;;2.83;;
52974;SDS011;38839;45.186;5.720;2023-03-31T01:41:00;8.43;;;3.50;;
52974;SDS011;38839;45.186;5.720;2023-03-31T01:48:45;6.45;;;3.35;;
52974;SDS011;38839;45.186;5.720;2023-03-31T01:51:33;7.15;;;3.38;;
52974;SDS011;38839;45.186;5.720;2023-03-31T01:54:12;13.23;;;3.50;;
52974;SDS011;38839;45.186;5.720;2023-03-31T01:56:45;7.75;;;4.00;;
52974;SDS011;38839;45.186;5.720;2023-03-31T01:59:17;9.43;;;3.65;;
52974;SDS011;38839;45.186;5.720;2023-03-31T02:02:01;13.55;;;3.67;;
52974;SDS011;38839;45.186;5.720;2023-03-31T02:04:35;7.43;;;3.33;;
52974;SDS011;38839;45.186;5.720;2023-03-31T02:07:14;8.32;;;3.65;;
52974;SDS011;38839;45.186;5.720;2023-03-31T02:09:43;10.25;;;3.38;;
52974;SDS011;38839;45.186;5.720;2023-03-31T02:12:14;9.95;;;3.22;;
52974;SDS011;38839;45.186;5.720;2023-03-31T02:14:43;7.30;;;4.53;;
52974;SDS011;38839;45.186;5.720;2023-03-31T02:17:14;10.75;;;3.70;;
52974;SDS011;38839;45.186;5.720;2023-03-31T02:19:42;6.25;;;3.17;;
52974;SDS011;38839;45.186;5.720;2023-03-31T02:22:16;7.80;;;3.42;;
52974;SDS011;38839;45.186;5.720;2023-03-31T02:24:51;9.77;;;3.90;;
52974;SDS011;38839;45.186;5.720;2023-03-31T02:27:24;11.48;;;3.30;;
52974;SDS011;38839;45.186;5.720;2023-03-31T02:29:54;7.55;;;3.13;;
52974;SDS011;38839;45.186;5.720;2023-03-31T02:32:39;8.60;;;3.83;;
52974;SDS011;38839;45.186;5.720;2023-03-31T02:35:07;7.15;;;3.45;;
52974;SDS011;38839;45.186;5.720;2023-03-31T02:37:39;6.00;;;3.20;;
52974;SDS011;38839;45.186;5.720;2023-03-31T02:40:07;4.55;;;3.00;;
52974;SDS011;38839;45.186;5.720;2023-03-31T02:42:37;9.43;;;3.47;;
52974;SDS011;38839;45.186;5.720;2023-03-31T02:45:04;8.02;;;3.00;;
52974;SDS011;38839;45.186;5.720;2023-03-31T02:47:31;10.40;;;3.10;;
52974;SDS011;38839;45.186;5.720;2023-03-31T02:49:58;8.55;;;3.33;;
52974;SDS011;38839;45.186;5.720;2023-03-31T02:52:32;8.65;;;3.53;;
52974;SDS011;38839;45.186;5.720;2023-03-31T03:03:16;8.88;;;3.30;;
52974;SDS011;38839;45.186;5.720;2023-03-31T03:05:52;5.22;;;3.00;;
52974;SDS011;38839;45.186;5.720;2023-03-31T03:08:35;8.35;;;3.03;;
52974;SDS011;38839;45.186;5.720;2023-03-31T03:11:21;7.90;;;3.47;;
52974;SDS011;38839;45.186;5.720;2023-03-31T03:14:00;8.20;;;3.53;;
52974;SDS011;38839;45.186;5.720;2023-03-31T03:16:34;6.72;;;3.20;;
52974;SDS011;38839;45.186;5.720;2023-03-31T03:19:05;7.35;;;3.10;;
52974;SDS011;38839;45.186;5.720;2023-03-31T03:21:31;7.18;;;3.38;;
52974;SDS011;38839;45.186;5.720;2023-03-31T03:23:57;9.63;;;3.42;;
52974;SDS011;38839;45.186;5.720;2023-03-31T03:26:24;7.30;;;3.25;;
52974;SDS011;38839;45.186;5.720;2023-03-31T03:28:52;8.57;;;3.30;;
52974;SDS011;38839;45.186;5.720;2023-03-31T03:31:19;7.28;;;3.33;;
52974;SDS011;38839;45.186;5.720;2023-03-31T03:33:47;6.95;;;3.05;;
52974;SDS011;38839;45.186;5.720;2023-03-31T03:36:16;7.40;;;3.05;;
52974;SDS011;38839;45.186;5.720;2023-03-31T03:38:42;8.80;;;4.00;;
52974;SDS011;38839;45.186;5.720;2023-03-31T03:41:07;9.02;;;4.10;;
52974;SDS011;38839;45.186;5.720;2023-03-31T03:43:33;7.85;;;3.30;;
52974;SDS011;38839;45.186;5.720;2023-03-31T03:45:58;6.32;;;3.55;;
52974;SDS011;38839;45.186;5.720;2023-03-31T03:48:24;7.53;;;3.60;;
52974;SDS011;38839;45.186;5.720;2023-03-31T03:50:50;8.45;;;2.80;;
52974;SDS011;38839;45.186;5.720;2023-03-31T03:53:17;6.88;;;3.20;;
52974;SDS011;38839;45.186;5.720;2023-03-31T03:55:43;6.28;;;3.03;;
52974;SDS011;38839;45.186;5.720;2023-03-31T03:58:09;7.22;;;3.03;;
52974;SDS011;38839;45.186;5.720;2023-03-31T04:00:35;5.20;;;2.65;;
52974;SDS011;38839;45.186;5.720;2023-03-31T04:03:00;9.65;;;3.15;;
52974;SDS011;38839;45.186;5.720;2023-03-31T04:05:26;6.32;;;2.83;;
52974;SDS011;38839;45.186;5.720;2023-03-31T04:07:51;10.73;;;3.05;;
52974;SDS011;38839;45.186;5.720;2023-03-31T04:10:16;4.93;;;2.65;;
52974;SDS011;38839;45.186;5.720;2023-03-31T04:12:42;10.52;;;2.95;;
52974;SDS011;38839;45.186;5.720;2023-03-31T04:15:07;10.13;;;3.70;;
52974;SDS011;38839;45.186;5.720;2023-03-31T04:17:33;10.23;;;3.78;;
52974;SDS011;38839;45.186;5.720;2023-03-31T04:20:01;8.50;;;3.20;;
52974;SDS011;38839;45.186;5.720;2023-03-31T04:22:29;5.28;;;3.00;;
52974;SDS011;38839;45.186;5.720;2023-03-31T04:25:00;6.03;;;2.58;;
52974;SDS011;38839;45.186;5.720;2023-03-31T04:27:29;11.32;;;3.22;;
52974;SDS011;38839;45.186;5.720;2023-03-31T04:29:55;10.43;;;3.25;;
52974;SDS011;38839;45.186;5.720;2023-03-31T04:32:21;8.13;;;3.15;;
52974;SDS011;38839;45.186;5.720;2023-03-31T04:34:47;7.32;;;3.40;;
52974;SDS011;38839;45.186;5.720;2023-03-31T04:37:14;6.03;;;2.70;;
52974;SDS011;38839;45.186;5.720;2023-03-31T04:39:40;6.93;;;3.08;;
52974;SDS011;38839;45.186;5.720;2023-03-31T04:42:06;7.90;;;2.95;;
52974;SDS011;38839;45.186;5.720;2023-03-31T04:44:31;11.68;;;3.25;;
52974;SDS011;38839;45.186;5.720;2023-03-31T04:46:56;12.25;;;3.17;;
52974;SDS011;38839;45.186;5.720;2023-03-31T04:49:23;6.90;;;2.97;;
52974;SDS011;38839;45.186;5.720;2023-03-31T04:51:49;6.75;;;2.60;;
52974;SDS011;38839;45.186;5.720;2023-03-31T04:54:14;5.65;;;2.45;;
52974;SDS011;38839;45.186;5.720;2023-03-31T04:56:40;4.70;;;2.20;;
52974;SDS011;38839;45.186;5.720;2023-03-31T04:59:06;5.38;;;2.05;;
52974;SDS011;38839;45.186;5.720;2023-03-31T05:01:32;6.35;;;2.30;;
52974;SDS011;38839;45.186;5.720;2023-03-31T05:04:00;6.97;;;2.00;;
52974;SDS011;38839;45.186;5.720;2023-03-31T05:06:25;5.88;;;1.70;;
52974;SDS011;38839;45.186;5.720;2023-03-31T05:08:51;3.42;;;1.45;;
52974;SDS011;38839;45.186;5.720;2023-03-31T05:11:16;6.00;;;1.63;;
52974;SDS011;38839;45.186;5.720;2023-03-31T05:13:41;7.07;;;1.85;;
52974;SDS011;38839;45.186;5.720;2023-03-31T05:16:08;8.20;;;1.70;;
52974;SDS011;38839;45.186;5.720;2023-03-31T05:18:36;9.57;;;2.20;;
52974;SDS011;38839;45.186;5.720;2023-03-31T05:21:12;10.25;;;1.75;;
52974;SDS011;38839;45.186;5.720;2023-03-31T05:23:39;5.30;;;1.58;;
52974;SDS011;38839;45.186;5.720;2023-03-31T05:26:05;7.85;;;1.45;;
52974;SDS011;38839;45.186;5.720;2023-03-31T05:28:32;6.03;;;1.50;;
52974;SDS011;38839;45.186;5.720;2023-03-31T05:30:58;4.50;;;1.70;;
52974;SDS011;38839;45.186;5.720;2023-03-31T05:33:25;5.85;;;1.45;;
52974;SDS011;38839;45.186;5.720;2023-03-31T07:10:09;7.57;;;2.78;;
52974;SDS011;38839;45.186;5.720;2023-03-31T07:12:35;6.38;;;2.58;;
52974;SDS011;38839;45.186;5.720;2023-03-31T07:15:00;11.38;;;3.08;;
52974;SDS011;38839;45.186;5.720;2023-03-31T07:17:25;9.50;;;3.20;;
52974;SDS011;38839;45.186;5.720;2023-03-31T07:19:51;9.77;;;2.83;;
52974;SDS011;38839;45.186;5.720;2023-03-31T07:22:16;8.13;;;2.92;;
52974;SDS011;38839;45.186;5.720;2023-03-31T07:24:42;8.57;;;2.85;;
52974;SDS011;38839;45.186;5.720;2023-03-31T07:27:07;10.98;;;3.42;;
52974;SDS011;38839;45.186;5.720;2023-03-31T07:29:33;12.70;;;3.55;;
52974;SDS011;38839;45.186;5.720;2023-03-31T07:31:58;8.02;;;2.80;;
52974;SDS011;38839;45.186;5.720;2023-03-31T07:34:23;9.93;;;2.97;;
52974;SDS011;38839;45.186;5.720;2023-03-31T07:36:49;7.72;;;3.05;;
52974;SDS011;38839;45.186;5.720;2023-03-31T07:39:15;10.25;;;3.35;;
52974;SDS011;38839;45.186;5.720;2023-03-31T07:41:41;10.27;;;3.28;;
52974;SDS011;38839;45.186;5.720;2023-03-31T07:44:06;14.27;;;4.15;;
52974;SDS011;38839;45.186;5.720;2023-03-31T07:46:32;9.80;;;3.80;;
52974;SDS011;38839;45.186;5.720;2023-03-31T07:48:57;12.05;;;4.15;;
52974;SDS011;38839;45.186;5.720;2023-03-31T07:51:24;11.52;;;4.40;;
52974;SDS011;38839;45.186;5.720;2023-03-31T07:53:51;9.75;;;4.22;;
52974;SDS011;38839;45.186;5.720;2023-03-31T07:56:17;8.82;;;4.10;;
52974;SDS011;38839;45.186;5.720;2023-03-31T07:58:45;14.60;;;5.53;;
52974;SDS011;38839;45.186;5.720;2023-03-31T08:01:14;10.20;;;4.72;;
52974;SDS011;38839;45.186;5.720;2023-03-31T08:06:06;9.20;;;4.55;;
52974;SDS011;38839;45.186;5.720;2023-03-31T08:08:32;11.77;;;5.20;;
52974;SDS011;38839;45.186;5.720;2023-03-31T08:10:57;14.25;;;5.22;;
52974;SDS011;38839;45.186;5.720;2023-03-31T08:13:23;12.07;;;4.95;;
52974;SDS011;38839;45.186;5.720;2023-03-31T08:15:48;11.52;;;6.13;;
52974;SDS011;38839;45.186;5.720;2023-03-31T08:18:13;10.77;;;5.68;;
52974;SDS011;38839;45.186;5.720;2023-03-31T08:20:39;11.55;;;5.43;;
52974;SDS011;38839;45.186;5.720;2023-03-31T08:23:05;7.93;;;5.18;;
52974;SDS011;38839;45.186;5.720;2023-03-31T08:25:33;11.48;;;5.53;;
52974;SDS011;38839;45.186;5.720;2023-03-31T08:27:58;11.10;;;5.75;;
52974;SDS011;38839;45.186;5.720;2023-03-31T08:30:24;10.40;;;5.43;;
52974;SDS011;38839;45.186;5.720;2023-03-31T08:32:49;12.07;;;5.88;;
52974;SDS011;38839;45.186;5.720;2023-03-31T08:35:15;10.90;;;6.10;;
52974;SDS011;38839;45.186;5.720;2023-03-31T08:37:41;9.18;;;6.10;;
52974;SDS011;38839;45.186;5.720;2023-03-31T08:40:06;9.98;;;5.72;;
52974;SDS011;38839;45.186;5.720;2023-03-31T08:42:45;12.20;;;6.40;;
52974;SDS011;38839;45.186;5.720;2023-03-31T08:47:59;17.23;;;6.25;;
52974;SDS011;38839;45.186;5.720;2023-03-31T08:51:06;11.45;;;5.60;;
52974;SDS011;38839;45.186;5.720;2023-03-31T08:53:41;9.85;;;5.68;;
52974;SDS011;38839;45.186;5.720;2023-03-31T08:56:15;10.30;;;5.68;;
52974;SDS011;38839;45.186;5.720;2023-03-31T08:58:44;11.52;;;5.82;;
52974;SDS011;38839;45.186;5.720;2023-03-31T09:04:08;12.88;;;5.80;;
52974;SDS011;38839;45.186;5.720;2023-03-31T09:09:19;13.48;;;6.00;;
52974;SDS011;38839;45.186;5.720;2023-03-31T09:12:04;10.52;;;6.10;;
52974;SDS011;38839;45.186;5.720;2023-03-31T09:14:37;10.90;;;5.78;;
52974;SDS011;38839;45.186;5.720;2023-03-31T09:17:19;10.82;;;5.82;;
52974;SDS011;38839;45.186;5.720;2023-03-31T09:20:02;10.68;;;5.88;;
52974;SDS011;38839;45.186;5.720;2023-03-31T09:22:35;13.38;;;6.65;;
52974;SDS011;38839;45.186;5.720;2023-03-31T09:27:30;15.35;;;8.00;;
52974;SDS011;38839;45.186;5.720;2023-03-31T09:30:20;17.67;;;7.05;;
52974;SDS011;38839;45.186;5.720;2023-03-31T09:33:01;12.60;;;7.53;;
52974;SDS011;38839;45.186;5.720;2023-03-31T09:35:47;13.40;;;7.32;;
52974;SDS011;38839;45.186;5.720;2023-03-31T09:38:13;14.80;;;7.65;;
52974;SDS011;38839;45.186;5.720;2023-03-31T09:40:39;11.40;;;6.93;;
52974;SDS011;38839;45.186;5.720;2023-03-31T09:43:07;16.08;;;7.82;;
52974;SDS011;38839;45.186;5.720;2023-03-31T09:45:40;11.30;;;6.97;;
52974;SDS011;38839;45.186;5.720;2023-03-31T09:48:13;12.55;;;7.20;;
52974;SDS011;38839;45.186;5.720;2023-03-31T09:50:44;12.93;;;7.00;;
52974;SDS011;38839;45.186;5.720;2023-03-31T09:53:26;12.43;;;6.85;;
52974;SDS011;38839;45.186;5.720;2023-03-31T09:56:02;13.05;;;6.90;;
52974;SDS011;38839;45.186;5.720;2023-03-31T09:58:33;15.13;;;7.53;;
52974;SDS011;38839;45.186;5.720;2023-03-31T10:01:05;18.05;;;7.45;;
52974;SDS011;38839;45.186;5.720;2023-03-31T10:03:40;14.57;;;6.85;;
52974;SDS011;38839;45.186;5.720;2023-03-31T10:06:14;15.73;;;8.27;;
52974;SDS011;38839;45.186;5.720;2023-03-31T10:08:41;16.80;;;8.32;;
52974;SDS011;38839;45.186;5.720;2023-03-31T10:11:13;14.88;;;7.88;;
52974;SDS011;38839;45.186;5.720;2023-03-31T10:13:48;15.63;;;8.23;;
52974;SDS011;38839;45.186;5.720;2023-03-31T10:16:21;13.50;;;7.87;;
52974;SDS011;38839;45.186;5.720;2023-03-31T10:21:36;16.33;;;9.10;;
52974;SDS011;38839;45.186;5.720;2023-03-31T10:24:02;22.15;;;8.35;;
52974;SDS011;38839;45.186;5.720;2023-03-31T10:26:34;13.85;;;8.10;;
52974;SDS011;38839;45.186;5.720;2023-03-31T10:29:00;11.75;;;7.15;;
52974;SDS011;38839;45.186;5.720;2023-03-31T10:31:26;15.52;;;7.75;;
52974;SDS011;38839;45.186;5.720;2023-03-31T10:34:03;12.77;;;6.75;;
52974;SDS011;38839;45.186;5.720;2023-03-31T10:36:30;13.82;;;7.72;;
52974;SDS011;38839;45.186;5.720;2023-03-31T10:38:56;14.52;;;7.03;;
52974;SDS011;38839;45.186;5.720;2023-03-31T10:41:23;12.52;;;6.90;;
52974;SDS011;38839;45.186;5.720;2023-03-31T10:43:54;11.80;;;6.23;;
52974;SDS011;38839;45.186;5.720;2023-03-31T10:49:14;10.07;;;5.88;;
52974;SDS011;38839;45.186;5.720;2023-03-31T10:51:53;11.07;;;6.10;;
52974;SDS011;38839;45.186;5.720;2023-03-31T10:54:20;12.15;;;5.75;;
52974;SDS011;38839;45.186;5.720;2023-03-31T10:56:46;11.95;;;5.55;;
52974;SDS011;38839;45.186;5.720;2023-03-31T11:07:58;11.00;;;4.85;;
52974;SDS011;38839;45.186;5.720;2023-03-31T11:10:31;8.52;;;4.53;;
52974;SDS011;38839;45.186;5.720;2023-03-31T11:13:19;7.70;;;4.43;;
52974;SDS011;38839;45.186;5.720;2023-03-31T11:15:54;8.48;;;4.60;;
52974;SDS011;38839;45.186;5.720;2023-03-31T11:27:00;5.68;;;4.32;;
52974;SDS011;38839;45.186;5.720;2023-03-31T11:29:29;7.38;;;4.25;;
52974;SDS011;38839;45.186;5.720;2023-03-31T11:43:06;5.03;;;4.18;;
52974;SDS011;38839;45.186;5.720;2023-03-31T11:45:58;5.80;;;4.15;;
52974;SDS011;38839;45.186;5.720;2023-03-31T11:50:55;7.80;;;4.53;;
52974;SDS011;38839;45.186;5.720;2023-03-31T11:53:29;6.80;;;4.18;;
52974;SDS011;38839;45.186;5.720;2023-03-31T11:55:59;4.97;;;4.03;;
52974;SDS011;38839;45.186;5.720;2023-03-31T12:00:59;6.13;;;3.75;;
52974;SDS011;38839;45.186;5.720;2023-03-31T12:06:01;8.20;;;3.90;;
52974;SDS011;38839;45.186;5.720;2023-03-31T12:08:33;6.28;;;3.75;;
52974;SDS011;38839;45.186;5.720;2023-03-31T12:11:09;5.30;;;3.30;;
52974;SDS011;38839;45.186;5.720;2023-03-31T12:21:46;4.03;;;3.03;;
52974;SDS011;38839;45.186;5.720;2023-03-31T12:24:15;5.05;;;3.00;;
52974;SDS011;38839;45.186;5.720;2023-03-31T12:26:56;7.32;;;3.10;;
52974;SDS011;38839;45.186;5.720;2023-03-31T12:29:48;5.72;;;2.97;;
52974;SDS011;38839;45.186;5.720;2023-03-31T12:32:16;4.93;;;3.08;;
52974;SDS011;38839;45.186;5.720;2023-03-31T12:35:50;5.57;;;3.63;;
52974;SDS011;38839;45.186;5.720;2023-03-31T12:38:02;4.22;;;3.17;;
52974;SDS011;38839;45.186;5.720;2023-03-31T12:43:49;5.47;;;2.63;;
52974;SDS011;38839;45.186;5.720;2023-03-31T12:49:08;5.55;;;3.35;;
52974;SDS011;38839;45.186;5.720;2023-03-31T12:51:57;4.90;;;2.90;;
52974;SDS011;38839;45.186;5.720;2023-03-31T12:57:22;6.18;;;3.33;;
52974;SDS011;38839;45.186;5.720;2023-03-31T13:00:32;6.40;;;2.92;;
52974;SDS011;38839;45.186;5.720;2023-03-31T13:02:49;4.75;;;3.00;;
52974;SDS011;38839;45.186;5.720;2023-03-31T13:05:45;6.15;;;2.95;;
52974;SDS011;38839;45.186;5.720;2023-03-31T13:08:12;6.50;;;3.33;;
52974;SDS011;38839;45.186;5.720;2023-03-31T13:11:16;7.03;;;3.05;;
52974;SDS011;38839;45.186;5.720;2023-03-31T13:13:51;4.38;;;3.00;;
52974;SDS011;38839;45.186;5.720;2023-03-31T13:16:40;7.57;;;3.08;;
52974;SDS011;38839;45.186;5.720;2023-03-31T13:19:05;4.22;;;2.72;;
52974;SDS011;38839;45.186;5.720;2023-03-31T13:21:31;6.32;;;3.30;;
52974;SDS011;38839;45.186;5.720;2023-03-31T13:24:19;4.72;;;2.85;;
52974;SDS011;38839;45.186;5.720;2023-03-31T13:26:47;4.40;;;2.42;;
52974;SDS011;38839;45.186;5.720;2023-03-31T13:34:34;7.13;;;3.47;;
52974;SDS011;38839;45.186;5.720;2023-03-31T13:54:17;5.95;;;2.90;;
52974;SDS011;38839;45.186;5.720;2023-03-31T14:07:30;7.78;;;2.63;;
52974;SDS011;38839;45.186;5.720;2023-03-31T14:10:01;8.63;;;3.13;;
52974;SDS011;38839;45.186;5.720;2023-03-31T14:14:58;5.15;;;2.38;;
52974;SDS011;38839;45.186;5.720;2023-03-31T14:17:27;5.78;;;2.63;;
52974;SDS011;38839;45.186;5.720;2023-03-31T14:34:10;4.05;;;1.90;;
52974;SDS011;38839;45.186;5.720;2023-03-31T14:36:58;3.40;;;1.55;;
52974;SDS011;38839;45.186;5.720;2023-03-31T14:42:39;5.70;;;1.90;;
52974;SDS011;38839;45.186;5.720;2023-03-31T14:45:25;4.20;;;1.60;;
52974;SDS011;38839;45.186;5.720;2023-03-31T14:48:11;3.13;;;1.70;;
52974;SDS011;38839;45.186;5.720;2023-03-31T14:50:41;4.53;;;1.45;;
52974;SDS011;38839;45.186;5.720;2023-03-31T14:55:40;4.32;;;1.80;;
52974;SDS011;38839;45.186;5.720;2023-03-31T14:58:07;4.95;;;1.88;;
52974;SDS011;38839;45.186;5.720;2023-03-31T15:00:37;5.10;;;2.17;;
52974;SDS011;38839;45.186;5.720;2023-03-31T15:03:05;3.72;;;1.58;;
52974;SDS011;38839;45.186;5.720;2023-03-31T15:05:33;3.40;;;1.55;;
52974;SDS011;38839;45.186;5.720;2023-03-31T15:08:20;2.95;;;1.73;;
52974;SDS011;38839;45.186;5.720;2023-03-31T15:10:48;3.47;;;1.50;;
52974;SDS011;38839;45.186;5.720;2023-03-31T15:13:18;3.23;;;1.73;;
52974;SDS011;38839;45.186;5.720;2023-03-31T15:15:48;3.70;;;1.60;;
52974;SDS011;38839;45.186;5.720;2023-03-31T15:18:14;3.97;;;1.30;;
52974;SDS011;38839;45.186;5.720;2023-03-31T15:20:41;3.58;;;1.20;;
52974;SDS011;38839;45.186;5.720;2023-03-31T15:23:24;3.38;;;1.08;;
52974;SDS011;38839;45.186;5.720;2023-03-31T15:25:55;4.72;;;1.40;;
52974;SDS011;38839;45.186;5.720;2023-03-31T15:28:23;2.55;;;1.05;;
52974;SDS011;38839;45.186;5.720;2023-03-31T15:30:53;2.38;;;1.33;;
52974;SDS011;38839;45.186;5.720;2023-03-31T15:33:25;2.53;;;1.20;;
52974;SDS011;38839;45.186;5.720;2023-03-31T15:35:57;3.50;;;1.10;;
52974;SDS011;38839;45.186;5.720;2023-03-31T15:38:23;5.22;;;1.15;;
52974;SDS011;38839;45.186;5.720;2023-03-31T15:43:27;2.35;;;0.70;;
52974;SDS011;38839;45.186;5.720;2023-03-31T15:51:15;3.22;;;1.30;;
52974;SDS011;38839;45.186;5.720;2023-03-31T15:53:44;2.42;;;1.17;;
52974;SDS011;38839;45.186;5.720;2023-03-31T16:01:47;4.18;;;1.63;;
52974;SDS011;38839;45.186;5.720;2023-03-31T16:04:14;3.72;;;1.55;;
52974;SDS011;38839;45.186;5.720;2023-03-31T16:06:42;5.65;;;1.50;;
52974;SDS011;38839;45.186;5.720;2023-03-31T16:09:13;1.63;;;1.00;;
52974;SDS011;38839;45.186;5.720;2023-03-31T16:14:20;1.38;;;0.75;;
52974;SDS011;38839;45.186;5.720;2023-03-31T16:16:56;2.42;;;1.13;;
52974;SDS011;38839;45.186;5.720;2023-03-31T16:19:26;1.85;;;0.70;;
52974;SDS011;38839;45.186;5.720;2023-03-31T16:24:28;1.47;;;0.60;;
52974;SDS011;38839;45.186;5.720;2023-03-31T16:26:59;2.78;;;0.80;;
52974;SDS011;38839;45.186;5.720;2023-03-31T16:29:30;2.63;;;0.75;;
52974;SDS011;38839;45.186;5.720;2023-03-31T16:32:10;0.85;;;0.47;;
52974;SDS011;38839;45.186;5.720;2023-03-31T16:34:50;1.20;;;0.70;;
52974;SDS011;38839;45.186;5.720;2023-03-31T16:37:17;1.42;;;0.40;;
52974;SDS011;38839;45.186;5.720;2023-03-31T16:39:42;1.70;;;0.70;;
52974;SDS011;38839;45.186;5.720;2023-03-31T16:42:08;3.53;;;0.82;;
52974;SDS011;38839;45.186;5.720;2023-03-31T16:44:33;1.77;;;0.75;;
52974;SDS011;38839;45.186;5.720;2023-03-31T16:46:59;2.22;;;0.90;;
52974;SDS011;38839;45.186;5.720;2023-03-31T16:49:24;1.25;;;0.52;;
52974;SDS011;38839;45.186;5.720;2023-03-31T16:51:50;2.25;;;0.50;;
52974;SDS011;38839;45.186;5.720;2023-03-31T16:54:16;3.72;;;0.63;;
52974;SDS011;38839;45.186;5.720;2023-03-31T16:56:42;1.33;;;0.55;;
52974;SDS011;38839;45.186;5.720;2023-03-31T16:59:07;1.25;;;0.60;;
52974;SDS011;38839;45.186;5.720;2023-03-31T17:01:33;0.88;;;0.50;;
52974;SDS011;38839;45.186;5.720;2023-03-31T17:03:58;4.57;;;0.70;;
52974;SDS011;38839;45.186;5.720;2023-03-31T17:06:24;0.93;;;0.40;;
52974;SDS011;38839;45.186;5.720;2023-03-31T17:08:49;2.47;;;0.90;;
52974;SDS011;38839;45.186;5.720;2023-03-31T17:11:15;0.50;;;0.30;;
52974;SDS011;38839;45.186;5.720;2023-03-31T17:13:41;1.67;;;0.63;;
52974;SDS011;38839;45.186;5.720;2023-03-31T17:16:07;1.90;;;0.60;;
52974;SDS011;38839;45.186;5.720;2023-03-31T17:18:33;1.33;;;0.73;;
52974;SDS011;38839;45.186;5.720;2023-03-31T17:21:03;2.03;;;0.40;;
52974;SDS011;38839;45.186;5.720;2023-03-31T17:23:37;0.82;;;0.30;;
52974;SDS011;38839;45.186;5.720;2023-03-31T17:26:03;1.48;;;0.90;;
52974;SDS011;38839;45.186;5.720;2023-03-31T17:28:30;1.30;;;0.57;;
52974;SDS011;38839;45.186;5.720;2023-03-31T17:30:57;2.13;;;0.40;;
52974;SDS011;38839;45.186;5.720;2023-03-31T17:33:22;2.72;;;0.65;;
52974;SDS011;38839;45.186;5.720;2023-03-31T17:35:48;1.25;;;0.70;;
52974;SDS011;38839;45.186;5.720;2023-03-31T17:38:14;1.55;;;0.80;;
52974;SDS011;38839;45.186;5.720;2023-03-31T17:40:43;1.60;;;1.02;;
52974;SDS011;38839;45.186;5.720;2023-03-31T17:43:09;4.07;;;1.50;;
52974;SDS011;38839;45.186;5.720;2023-03-31T17:45:34;1.90;;;0.73;;
52974;SDS011;38839;45.186;5.720;2023-03-31T17:48:00;2.13;;;0.68;;
52974;SDS011;38839;45.186;5.720;2023-03-31T17:50:26;1.73;;;0.70;;
52974;SDS011;38839;45.186;5.720;2023-03-31T17:52:52;1.58;;;0.80;;
52974;SDS011;38839;45.186;5.720;2023-03-31T17:55:17;1.77;;;0.82;;
52974;SDS011;38839;45.186;5.720;2023-03-31T17:57:43;2.65;;;1.00;;
52974;SDS011;38839;45.186;5.720;2023-03-31T18:00:10;2.25;;;0.90;;
52974;SDS011;38839;45.186;5.720;2023-03-31T18:02:39;2.53;;;1.17;;
52974;SDS011;38839;45.186;5.720;2023-03-31T18:05:05;2.90;;;1.40;;
52974;SDS011;38839;45.186;5.720;2023-03-31T18:07:32;1.67;;;1.00;;
52974;SDS011;38839;45.186;5.720;2023-03-31T18:09:58;2.33;;;0.95;;
52974;SDS011;38839;45.186;5.720;2023-03-31T18:12:24;6.30;;;1.17;;
52974;SDS011;38839;45.186;5.720;2023-03-31T18:14:49;4.90;;;1.42;;
52974;SDS011;38839;45.186;5.720;2023-03-31T18:17:16;2.63;;;1.30;;
52974;SDS011;38839;45.186;5.720;2023-03-31T18:19:42;2.65;;;0.98;;
52974;SDS011;38839;45.186;5.720;2023-03-31T18:22:08;4.28;;;1.50;;
52974;SDS011;38839;45.186;5.720;2023-03-31T18:24:34;3.25;;;1.00;;
52974;SDS011;38839;45.186;5.720;2023-03-31T18:27:02;1.58;;;0.70;;
52974;SDS011;38839;45.186;5.720;2023-03-31T18:29:28;1.45;;;0.70;;
52974;SDS011;38839;45.186;5.720;2023-03-31T18:31:53;1.52;;;0.73;;
52974;SDS011;38839;45.186;5.720;2023-03-31T18:34:19;2.88;;;1.30;;
52974;SDS011;38839;45.186;5.720;2023-03-31T18:36:44;3.67;;;1.30;;
52974;SDS011;38839;45.186;5.720;2023-03-31T18:39:10;4.32;;;1.20;;
52974;SDS011;38839;45.186;5.720;2023-03-31T18:41:35;2.00;;;0.90;;
52974;SDS011;38839;45.186;5.720;2023-03-31T18:44:07;3.65;;;0.90;;
52974;SDS011;38839;45.186;5.720;2023-03-31T18:46:33;4.10;;;2.00;;
52974;SDS011;38839;45.186;5.720;2023-03-31T18:48:58;2.72;;;0.80;;
52974;SDS011;38839;45.186;5.720;2023-03-31T18:51:24;2.88;;;0.77;;
52974;SDS011;38839;45.186;5.720;2023-03-31T18:53:50;1.88;;;1.00;;
52974;SDS011;38839;45.186;5.720;2023-03-31T18:56:15;3.95;;;1.30;;
52974;SDS011;38839;45.186;5.720;2023-03-31T18:58:40;3.92;;;1.00;;
52974;SDS011;38839;45.186;5.720;2023-03-31T19:01:07;6.22;;;1.40;;
52974;SDS011;38839;45.186;5.720;2023-03-31T19:03:33;2.70;;;1.00;;
52974;SDS011;38839;45.186;5.720;2023-03-31T19:05:59;2.53;;;0.98;;
52974;SDS011;38839;45.186;5.720;2023-03-31T19:08:27;2.17;;;0.90;;
52974;SDS011;38839;45.186;5.720;2023-03-31T19:11:01;3.20;;;0.88;;
52974;SDS011;38839;45.186;5.720;2023-03-31T19:13:30;2.90;;;0.90;;
52974;SDS011;38839;45.186;5.720;2023-03-31T19:15:56;2.75;;;0.70;;
52974;SDS011;38839;45.186;5.720;2023-03-31T19:18:22;3.45;;;0.82;;
52974;SDS011;38839;45.186;5.720;2023-03-31T19:20:47;2.28;;;0.95;;
52974;SDS011;38839;45.186;5.720;2023-03-31T19:23:12;3.75;;;1.02;;
52974;SDS011;38839;45.186;5.720;2023-03-31T19:25:38;2.88;;;0.77;;
52974;SDS011;38839;45.186;5.720;2023-03-31T19:28:03;3.15;;;1.05;;
52974;SDS011;38839;45.186;5.720;2023-03-31T19:30:29;2.97;;;1.02;;
52974;SDS011;38839;45.186;5.720;2023-03-31T19:32:54;4.35;;;1.20;;
52974;SDS011;38839;45.186;5.720;2023-03-31T19:35:20;2.83;;;1.35;;
52974;SDS011;38839;45.186;5.720;2023-03-31T19:37:46;3.22;;;1.00;;